createdAt,value
2019-05-18T00:00:37.070Z,89.10
2019-05-18T00:03:05.372Z,89.30
2019-05-18T00:05:33.756Z,89.40
2019-05-18T00:08:02.028Z,89.50
2019-05-18T00:10:30.296Z,89.60
2019-05-18T00:12:58.594Z,89.70
2019-05-18T00:15:26.850Z,89.60
2019-05-18T00:17:56.367Z,89.90
2019-05-18T00:20:24.671Z,89.80
2019-05-18T00:22:52.974Z,89.90
2019-05-18T00:25:21.256Z,89.90
2019-05-18T00:27:50.698Z,90.00
2019-05-18T00:30:18.971Z,90.10
2019-05-18T00:32:47.309Z,90.00
2019-05-18T00:35:16.796Z,90.40
2019-05-18T00:37:45.126Z,90.10
2019-05-18T00:40:13.426Z,90.00
2019-05-18T00:42:41.786Z,90.10
2019-05-18T00:45:10.041Z,90.00
2019-05-18T00:47:41.969Z,90.00
2019-05-18T00:50:08.583Z,90.10
2019-05-18T00:52:37.228Z,90.20
2019-05-18T00:55:09.234Z,90.30
2019-05-18T00:57:37.504Z,90.40
2019-05-18T01:00:44.310Z,90.30
2019-05-18T01:03:12.595Z,90.40
2019-05-18T01:05:40.928Z,90.60
2019-05-18T01:08:09.317Z,90.60
2019-05-18T01:10:37.591Z,90.70
2019-05-18T01:13:05.877Z,90.70
2019-05-18T01:15:34.130Z,90.80
2019-05-18T01:18:02.598Z,90.80
2019-05-18T01:20:31.037Z,90.80
2019-05-18T01:22:59.312Z,90.80
2019-05-18T01:25:27.548Z,90.70
2019-05-18T01:27:55.876Z,90.60
2019-05-18T01:30:24.130Z,90.70
2019-05-18T01:32:52.397Z,90.80
2019-05-18T01:35:20.659Z,90.80
2019-05-18T01:37:48.928Z,90.80
2019-05-18T01:40:17.197Z,91.10
2019-05-18T01:42:46.445Z,90.80
2019-05-18T01:45:17.155Z,90.70
2019-05-18T01:47:44.716Z,90.70
2019-05-18T01:50:12.950Z,90.70
2019-05-18T01:52:41.200Z,90.70
2019-05-18T01:55:09.464Z,90.80
2019-05-18T01:57:37.732Z,90.90
2019-05-18T02:00:06.981Z,91.00
2019-05-18T02:02:35.320Z,91.00
2019-05-18T02:05:05.912Z,91.00
2019-05-18T02:07:34.711Z,91.00
2019-05-18T02:10:03.344Z,90.90
2019-05-18T02:12:31.670Z,91.00
2019-05-18T02:14:59.932Z,91.40
2019-05-18T02:17:28.188Z,91.10
2019-05-18T02:19:56.478Z,91.10
2019-05-18T02:22:24.727Z,91.10
2019-05-18T02:24:52.998Z,91.20
2019-05-18T02:27:21.252Z,91.10
2019-05-18T02:29:49.493Z,91.10
2019-05-18T02:32:17.754Z,91.20
2019-05-18T02:34:46.068Z,91.10
2019-05-18T02:37:14.385Z,91.20
2019-05-18T02:39:42.660Z,91.10
2019-05-18T02:42:10.951Z,91.20
2019-05-18T02:44:39.199Z,91.10
2019-05-18T02:47:07.469Z,91.20
2019-05-18T02:49:35.734Z,91.10
2019-05-18T02:52:03.990Z,91.10
2019-05-18T02:54:32.294Z,91.00
2019-05-18T02:57:00.568Z,91.20
2019-05-18T02:59:28.816Z,91.30
2019-05-18T03:01:57.611Z,91.10
2019-05-18T03:04:26.010Z,91.20
2019-05-18T03:06:54.285Z,91.20
2019-05-18T03:09:22.614Z,91.20
2019-05-18T03:11:50.875Z,91.20
2019-05-18T03:14:19.145Z,91.40
2019-05-18T03:16:47.436Z,91.30
2019-05-18T03:19:15.714Z,91.30
2019-05-18T03:21:44.005Z,91.30
2019-05-18T03:24:12.268Z,91.20
2019-05-18T03:26:40.531Z,91.10
2019-05-18T03:29:08.805Z,91.20
2019-05-18T03:31:37.083Z,91.20
2019-05-18T03:34:05.328Z,91.10
2019-05-18T03:36:33.662Z,91.20
2019-05-18T03:39:01.941Z,91.20
2019-05-18T03:41:30.264Z,91.20
2019-05-18T03:43:58.551Z,91.20
2019-05-18T03:46:26.929Z,91.20
2019-05-18T03:48:55.314Z,91.20
2019-05-18T03:51:23.596Z,91.10
2019-05-18T03:53:52.395Z,91.10
2019-05-18T03:56:20.717Z,91.20
2019-05-18T03:58:49.063Z,91.20
2019-05-18T04:01:17.282Z,91.20
2019-05-18T04:03:46.504Z,91.20
2019-05-18T04:06:14.736Z,91.40
2019-05-18T04:08:42.985Z,91.30
2019-05-18T04:11:11.309Z,91.30
2019-05-18T04:13:39.881Z,91.30
2019-05-18T04:16:08.129Z,91.40
2019-05-18T04:18:36.402Z,91.50
2019-05-18T04:21:06.965Z,91.70
2019-05-18T04:23:35.579Z,92.00
2019-05-18T04:26:03.967Z,92.00
2019-05-18T04:28:32.231Z,92.00
2019-05-18T04:31:00.612Z,92.00
2019-05-18T04:33:28.899Z,92.00
2019-05-18T04:35:57.305Z,92.20
2019-05-18T04:38:25.602Z,92.30
2019-05-18T04:40:54.070Z,92.40
2019-05-18T04:43:22.389Z,92.40
2019-05-18T04:45:50.706Z,92.30
2019-05-18T04:48:19.148Z,92.30
2019-05-18T04:50:47.443Z,92.20
2019-05-18T04:53:16.664Z,92.30
2019-05-18T04:55:44.923Z,92.30
2019-05-18T04:58:13.943Z,92.30
2019-05-18T05:00:42.784Z,92.30
2019-05-18T05:03:11.149Z,92.30
2019-05-18T05:05:39.534Z,92.10
2019-05-18T05:08:07.801Z,92.10
2019-05-18T05:10:36.123Z,92.10
2019-05-18T05:13:04.382Z,92.10
2019-05-18T05:15:33.271Z,92.10
2019-05-18T05:18:01.533Z,92.20
2019-05-18T05:20:29.824Z,92.20
2019-05-18T05:22:58.094Z,92.10
2019-05-18T05:25:26.319Z,91.50
2019-05-18T05:27:54.567Z,91.50
2019-05-18T05:30:22.846Z,91.50
2019-05-18T05:32:51.081Z,91.90
2019-05-18T05:35:19.382Z,91.90
2019-05-18T05:37:47.773Z,91.70
2019-05-18T05:40:16.027Z,91.60
2019-05-18T05:42:44.309Z,91.70
2019-05-18T05:45:12.572Z,91.60
2019-05-18T05:47:40.872Z,91.30
2019-05-18T05:50:09.560Z,91.40
2019-05-18T05:52:37.860Z,91.20
2019-05-18T05:55:07.301Z,91.50
2019-05-18T05:57:35.524Z,91.30
2019-05-18T06:00:05.946Z,91.40
2019-05-18T06:02:34.224Z,91.20
2019-05-18T06:05:02.601Z,91.30
2019-05-18T06:07:30.849Z,91.00
2019-05-18T06:09:59.156Z,91.20
2019-05-18T06:12:27.421Z,91.40
2019-05-18T06:14:55.880Z,91.20
2019-05-18T06:17:24.140Z,91.20
2019-05-18T06:19:52.468Z,90.90
2019-05-18T06:22:20.750Z,90.90
2019-05-18T06:24:49.012Z,90.90
2019-05-18T06:27:17.296Z,90.80
2019-05-18T06:29:45.570Z,90.60
2019-05-18T06:32:13.830Z,90.70
2019-05-18T06:34:42.206Z,90.70
2019-05-18T06:37:10.479Z,90.80
2019-05-18T06:39:38.754Z,91.00
2019-05-18T06:42:06.991Z,90.90
2019-05-18T06:44:35.225Z,90.60
2019-05-18T06:47:03.477Z,90.50
2019-05-18T06:49:31.825Z,90.30
2019-05-18T06:52:00.102Z,90.30
2019-05-18T06:54:28.343Z,90.30
2019-05-18T06:56:57.065Z,90.50
2019-05-18T06:59:25.839Z,90.40
2019-05-18T07:01:54.088Z,90.40
2019-05-18T07:04:22.544Z,90.40
2019-05-18T07:06:50.759Z,90.50
2019-05-18T07:09:19.190Z,90.60
2019-05-18T07:11:47.448Z,90.60
2019-05-18T07:14:25.412Z,90.10
2019-05-18T07:16:46.201Z,89.90
2019-05-18T07:19:14.509Z,90.10
2019-05-18T07:21:42.803Z,89.90
2019-05-18T07:24:11.072Z,90.10
2019-05-18T07:26:39.374Z,89.80
2019-05-18T07:29:07.628Z,89.80
2019-05-18T07:31:35.928Z,89.70
2019-05-18T07:34:04.168Z,90.20
2019-05-18T07:36:32.464Z,89.80
2019-05-18T07:39:00.796Z,89.70
2019-05-18T07:41:29.113Z,90.10
2019-05-18T07:43:57.388Z,89.80
2019-05-18T07:46:25.637Z,89.20
2019-05-18T07:48:54.720Z,89.00
2019-05-18T07:51:36.242Z,88.50
2019-05-18T07:53:53.017Z,88.20
2019-05-18T07:56:21.347Z,88.90
2019-05-18T07:58:49.595Z,87.50
2019-05-18T08:01:17.886Z,87.30
2019-05-18T08:03:46.146Z,87.10
2019-05-18T08:06:14.423Z,87.00
2019-05-18T08:08:42.741Z,85.80
2019-05-18T08:11:12.121Z,86.20
2019-05-18T08:13:40.360Z,85.70
2019-05-18T08:16:08.656Z,85.20
2019-05-18T08:18:36.914Z,82.90
2019-05-18T08:21:05.182Z,82.70
2019-05-18T08:23:33.466Z,83.30
2019-05-18T08:26:01.747Z,82.80
2019-05-18T08:28:30.008Z,82.80
2019-05-18T08:30:58.299Z,83.00
2019-05-18T08:33:26.534Z,82.80
2019-05-18T08:35:54.910Z,83.20
2019-05-18T08:38:23.289Z,82.30
2019-05-18T08:40:51.527Z,81.90
2019-05-18T08:43:19.740Z,81.40
2019-05-18T08:45:48.036Z,81.60
2019-05-18T08:48:16.307Z,82.60
2019-05-18T08:50:44.780Z,83.00
2019-05-18T08:53:13.162Z,83.70
2019-05-18T08:55:41.456Z,84.00
2019-05-18T08:58:09.965Z,82.40
2019-05-18T09:00:38.247Z,83.60
2019-05-18T09:03:06.800Z,85.10
2019-05-18T09:05:36.047Z,83.80
2019-05-18T09:08:04.513Z,83.30
2019-05-18T09:10:32.821Z,81.00
2019-05-18T09:13:01.122Z,81.40
2019-05-18T09:15:29.423Z,80.80
2019-05-18T09:17:57.682Z,79.90
2019-05-18T09:20:26.110Z,79.50
2019-05-18T09:22:54.465Z,78.40
2019-05-18T09:25:22.753Z,78.00
2019-05-18T09:27:51.108Z,78.30
2019-05-18T09:30:19.400Z,77.00
2019-05-18T09:32:47.744Z,76.40
2019-05-18T09:35:16.027Z,76.10
2019-05-18T09:37:44.287Z,75.50
2019-05-18T09:40:12.621Z,73.80
2019-05-18T09:43:00.370Z,74.90
2019-05-18T09:45:28.692Z,74.40
2019-05-18T09:47:56.985Z,73.70
2019-05-18T09:50:25.238Z,73.80
2019-05-18T09:52:53.524Z,74.10
2019-05-18T09:55:21.770Z,73.80
2019-05-18T09:57:50.963Z,73.50
2019-05-18T10:00:19.319Z,73.50
2019-05-18T10:02:47.607Z,71.60
2019-05-18T10:05:15.959Z,71.40
2019-05-18T10:07:44.222Z,71.50
2019-05-18T10:10:12.837Z,71.60
2019-05-18T10:12:41.127Z,71.80
2019-05-18T10:15:09.389Z,71.90
2019-05-18T10:17:37.662Z,72.00
2019-05-18T10:20:07.742Z,71.90
2019-05-18T10:22:36.992Z,71.30
2019-05-18T10:25:06.840Z,70.20
2019-05-18T10:27:35.133Z,69.80
2019-05-18T10:30:07.391Z,69.10
2019-05-18T10:32:35.670Z,68.10
2019-05-18T10:35:06.395Z,67.50
2019-05-18T10:37:34.624Z,66.90
2019-05-18T10:40:03.627Z,67.70
2019-05-18T10:42:31.900Z,66.30
2019-05-18T10:45:00.125Z,65.10
2019-05-18T10:47:28.365Z,64.80
2019-05-18T10:49:56.758Z,63.80
2019-05-18T10:52:26.052Z,63.10
2019-05-18T10:54:54.403Z,63.30
2019-05-18T10:57:24.169Z,63.50
2019-05-18T10:59:52.404Z,63.00
2019-05-18T11:02:21.501Z,64.10
2019-05-18T11:04:49.819Z,63.10
2019-05-18T11:07:18.048Z,63.40
2019-05-18T11:09:46.284Z,60.40
2019-05-18T11:12:14.511Z,61.90
2019-05-18T11:14:42.860Z,63.40
2019-05-18T11:17:11.214Z,64.30
2019-05-18T11:19:39.499Z,59.60
2019-05-18T11:22:08.311Z,59.80
2019-05-18T11:24:36.514Z,61.20
2019-05-18T11:27:04.925Z,59.00
2019-05-18T11:29:33.169Z,59.80
2019-05-18T11:32:01.478Z,60.30
2019-05-18T11:34:29.721Z,58.40
2019-05-18T11:36:57.964Z,57.40
2019-05-18T11:39:26.508Z,58.20
2019-05-18T11:41:54.744Z,58.90
2019-05-18T11:44:23.059Z,59.10
2019-05-18T11:46:51.311Z,59.20
2019-05-18T11:49:19.525Z,59.70
2019-05-18T11:51:47.895Z,60.40
2019-05-18T11:54:16.183Z,59.50
2019-05-18T11:56:44.619Z,60.30
2019-05-18T11:59:15.599Z,58.90
2019-05-18T12:01:43.044Z,58.10
2019-05-18T12:04:11.501Z,57.90
2019-05-18T12:06:40.156Z,58.50
2019-05-18T12:09:08.493Z,58.90
2019-05-18T12:11:36.817Z,58.50
2019-05-18T12:14:05.046Z,56.70
2019-05-18T12:16:33.657Z,56.60
2019-05-18T12:19:01.901Z,55.90
2019-05-18T12:21:30.121Z,55.50
2019-05-18T12:24:13.730Z,54.90
2019-05-18T12:26:28.398Z,55.20
2019-05-18T12:31:31.390Z,52.70
2019-05-18T12:33:59.649Z,52.60
2019-05-18T12:36:27.904Z,52.40
2019-05-18T12:38:56.168Z,52.30
2019-05-18T12:41:30.869Z,53.30
2019-05-18T12:43:59.106Z,53.30
2019-05-18T12:46:27.335Z,53.90
2019-05-18T12:48:55.781Z,53.00
2019-05-18T12:51:24.046Z,53.80
2019-05-18T12:53:52.285Z,54.40
2019-05-18T12:56:20.525Z,53.60
2019-05-18T12:58:48.823Z,49.90
2019-05-18T13:01:17.279Z,50.20
2019-05-18T13:03:45.575Z,47.20
2019-05-18T13:06:13.899Z,47.80
2019-05-18T13:08:42.162Z,48.50
2019-05-18T13:11:10.368Z,48.80
2019-05-18T13:13:38.609Z,46.90
2019-05-18T13:16:07.148Z,47.20
2019-05-18T13:18:36.234Z,49.00
2019-05-18T13:21:04.876Z,47.40
2019-05-18T13:23:34.002Z,46.80
2019-05-18T13:26:02.380Z,47.10
2019-05-18T13:28:30.884Z,46.80
2019-05-18T13:31:00.199Z,46.80
2019-05-18T13:33:28.444Z,48.60
2019-05-18T13:35:56.669Z,47.90
2019-05-18T13:38:25.016Z,49.20
2019-05-18T13:40:53.303Z,48.70
2019-05-18T13:43:21.555Z,49.00
2019-05-18T13:45:49.832Z,48.70
2019-05-18T13:48:18.195Z,48.00
2019-05-18T13:50:46.490Z,47.80
2019-05-18T13:53:14.746Z,48.30
2019-05-18T13:55:43.011Z,47.70
2019-05-18T13:58:11.329Z,49.10
2019-05-18T14:00:39.574Z,48.70
2019-05-18T14:03:08.067Z,46.90
2019-05-18T14:05:36.285Z,47.50
2019-05-18T14:08:04.519Z,48.80
2019-05-18T14:10:32.746Z,48.50
2019-05-18T14:13:00.959Z,48.40
2019-05-18T14:15:29.208Z,47.20
2019-05-18T14:17:57.455Z,47.70
2019-05-18T14:20:26.507Z,46.50
2019-05-18T14:22:55.164Z,46.80
2019-05-18T14:25:23.386Z,47.40
2019-05-18T14:27:51.800Z,46.70
2019-05-18T14:30:20.080Z,47.10
2019-05-18T14:32:48.344Z,47.90
2019-05-18T14:35:17.446Z,45.90
2019-05-18T14:37:45.730Z,45.10
2019-05-18T14:40:14.114Z,45.30
2019-05-18T14:42:42.331Z,45.40
2019-05-18T14:45:10.709Z,44.90
2019-05-18T14:47:39.043Z,44.80
2019-05-18T14:50:07.576Z,44.50
2019-05-18T14:52:36.094Z,44.40
2019-05-18T14:55:05.326Z,45.20
2019-05-18T14:57:33.952Z,45.60
2019-05-18T15:00:02.628Z,47.20
2019-05-18T15:02:30.979Z,52.80
2019-05-18T15:04:59.337Z,53.30
2019-05-18T15:07:27.582Z,53.00
2019-05-18T15:09:56.230Z,55.20
2019-05-18T15:12:24.489Z,53.70
2019-05-18T15:14:52.732Z,53.10
2019-05-18T15:17:21.007Z,53.70
2019-05-18T15:19:49.388Z,53.90
2019-05-18T15:22:17.623Z,53.20
2019-05-18T15:24:45.865Z,53.00
2019-05-18T15:27:14.089Z,53.90
2019-05-18T15:29:42.353Z,53.30
2019-05-18T15:32:10.677Z,52.90
2019-05-18T15:34:38.917Z,53.40
2019-05-18T15:37:07.165Z,53.90
2019-05-18T15:39:35.430Z,53.50
2019-05-18T15:42:03.948Z,54.20
2019-05-18T15:44:32.298Z,54.50
2019-05-18T15:47:00.608Z,54.50
2019-05-18T15:49:28.928Z,55.00
2019-05-18T15:51:57.210Z,56.00
2019-05-18T15:54:25.578Z,56.40
2019-05-18T15:56:53.837Z,56.50
2019-05-18T15:59:22.123Z,56.30
2019-05-18T16:01:50.336Z,56.60
2019-05-18T16:04:18.609Z,56.00
2019-05-18T16:06:46.828Z,56.30
2019-05-18T16:09:15.199Z,56.50
2019-05-18T16:11:43.433Z,56.60
2019-05-18T16:14:11.959Z,56.40
2019-05-18T16:16:41.288Z,56.70
2019-05-18T16:19:09.526Z,57.20
2019-05-18T16:21:37.756Z,58.10
2019-05-18T16:24:05.984Z,58.10
2019-05-18T16:26:34.214Z,57.40
2019-05-18T16:29:02.430Z,58.30
2019-05-18T16:31:30.674Z,57.90
2019-05-18T16:33:58.934Z,57.60
2019-05-18T16:36:27.167Z,57.00
2019-05-18T16:38:55.626Z,56.90
2019-05-18T16:41:23.843Z,57.70
2019-05-18T16:43:52.091Z,57.80
2019-05-18T16:46:20.356Z,58.30
2019-05-18T16:48:48.851Z,58.70
2019-05-18T16:51:17.098Z,58.60
2019-05-18T16:53:49.500Z,58.70
2019-05-18T16:56:15.272Z,59.00
2019-05-18T16:58:43.595Z,58.90
2019-05-18T17:01:11.844Z,58.80
2019-05-18T17:03:40.193Z,58.60
2019-05-18T17:06:08.558Z,58.70
2019-05-18T17:08:36.949Z,59.00
2019-05-18T17:11:05.350Z,59.20
2019-05-18T17:13:33.671Z,58.80
2019-05-18T17:16:02.036Z,59.00
2019-05-18T17:18:30.275Z,59.10
2019-05-18T17:20:58.561Z,59.30
2019-05-18T17:23:26.953Z,59.20
2019-05-18T17:25:55.193Z,59.00
2019-05-18T17:28:23.891Z,59.00
2019-05-18T17:30:52.137Z,59.20
2019-05-18T17:33:20.491Z,59.50
2019-05-18T17:36:00.050Z,59.70
2019-05-18T17:38:18.889Z,59.70
2019-05-18T17:40:47.126Z,59.40
2019-05-18T17:43:15.364Z,59.50
2019-05-18T17:45:43.984Z,59.40
2019-05-18T17:48:12.247Z,59.10
2019-05-18T17:50:40.658Z,59.70
2019-05-18T17:53:08.975Z,60.00
2019-05-18T17:55:37.247Z,59.60
2019-05-18T17:58:05.542Z,59.90
2019-05-18T18:00:33.962Z,60.10
2019-05-18T18:03:02.258Z,60.40
2019-05-18T18:05:30.631Z,60.60
2019-05-18T18:07:58.878Z,61.10
2019-05-18T18:10:27.184Z,61.50
2019-05-18T18:12:55.538Z,61.80
2019-05-18T18:15:23.773Z,62.30
2019-05-18T18:17:52.121Z,62.50
2019-05-18T18:20:20.585Z,62.50
2019-05-18T18:22:49.055Z,63.30
2019-05-18T18:25:17.353Z,63.60
2019-05-18T18:27:45.864Z,63.90
2019-05-18T18:30:14.217Z,64.30
2019-05-18T18:32:42.465Z,64.90
2019-05-18T18:35:10.701Z,65.00
2019-05-18T18:37:39.119Z,65.00
2019-05-18T18:40:08.017Z,65.40
2019-05-18T18:42:36.272Z,65.80
2019-05-18T18:45:06.556Z,66.20
2019-05-18T18:47:34.873Z,66.60
2019-05-18T18:50:04.519Z,66.90
2019-05-18T18:52:32.762Z,67.30
2019-05-18T18:55:01.161Z,67.70
2019-05-18T18:57:40.562Z,67.80
2019-05-18T18:59:59.532Z,68.00
2019-05-18T19:02:27.770Z,68.00
2019-05-18T19:04:57.007Z,68.30
2019-05-18T19:07:25.242Z,68.80
2019-05-18T19:09:53.473Z,68.80
2019-05-18T19:12:21.784Z,69.20
2019-05-18T19:14:50.107Z,69.20
2019-05-18T19:17:18.368Z,69.20
2019-05-18T19:19:46.636Z,69.50
2019-05-18T19:22:14.859Z,70.00
2019-05-18T19:24:43.291Z,70.40
2019-05-18T19:27:11.605Z,70.30
2019-05-18T19:29:39.823Z,70.40
2019-05-18T19:32:08.053Z,70.40
2019-05-18T19:34:36.413Z,70.90
2019-05-18T19:37:04.713Z,70.60
2019-05-18T19:39:32.982Z,70.80
2019-05-18T19:42:01.248Z,70.80
2019-05-18T19:44:29.702Z,71.10
2019-05-18T19:46:57.986Z,70.90
2019-05-18T19:49:26.678Z,70.80
2019-05-18T19:51:55.264Z,70.70
2019-05-18T19:54:23.485Z,70.70
2019-05-18T19:56:51.860Z,70.60
2019-05-18T19:59:20.136Z,70.50
2019-05-18T20:01:48.371Z,70.60
2019-05-18T20:04:16.678Z,70.80
2019-05-18T20:06:44.901Z,70.50
2019-05-18T20:09:13.193Z,71.00
2019-05-18T20:11:41.474Z,71.30
2019-05-18T20:14:09.761Z,71.50
2019-05-18T20:16:38.412Z,71.30
2019-05-18T20:19:06.611Z,71.10
2019-05-18T20:21:34.914Z,71.10
2019-05-18T20:24:03.229Z,71.20
2019-05-18T20:26:31.466Z,70.90
2019-05-18T20:28:59.740Z,71.50
2019-05-18T20:31:28.031Z,72.10
2019-05-18T20:33:56.314Z,72.10
2019-05-18T20:36:24.775Z,72.00
2019-05-18T20:38:54.089Z,72.20
2019-05-18T20:41:22.352Z,72.30
2019-05-18T20:43:50.632Z,72.60
2019-05-18T20:46:18.912Z,72.60
2019-05-18T20:48:47.240Z,73.10
2019-05-18T20:51:15.576Z,73.20
2019-05-18T20:53:43.849Z,73.10
2019-05-18T20:56:12.121Z,73.30
2019-05-18T20:58:40.911Z,73.60
2019-05-18T21:01:09.262Z,73.50
2019-05-18T21:03:37.597Z,73.60
2019-05-18T21:06:05.870Z,73.80
2019-05-18T21:08:34.107Z,73.90
2019-05-18T21:11:02.396Z,74.00
2019-05-18T21:13:30.638Z,74.00
2019-05-18T21:15:58.920Z,74.30
2019-05-18T21:18:27.190Z,74.30
2019-05-18T21:20:55.571Z,74.40
2019-05-18T21:23:23.817Z,74.90
2019-05-18T21:25:52.127Z,74.90
2019-05-18T21:28:20.372Z,75.10
2019-05-18T21:30:48.654Z,74.80
2019-05-18T21:33:16.898Z,75.00
2019-05-18T21:35:45.242Z,75.30
2019-05-18T21:38:13.522Z,75.40
2019-05-18T21:40:42.131Z,75.80
2019-05-18T21:43:10.394Z,75.80
2019-05-18T21:45:39.132Z,75.70
2019-05-18T21:48:07.497Z,76.00
2019-05-18T21:50:35.834Z,76.20
2019-05-18T21:53:04.105Z,76.40
2019-05-18T21:55:32.362Z,76.60
2019-05-18T21:58:00.607Z,76.70
2019-05-18T22:00:30.510Z,76.90
2019-05-18T22:02:58.984Z,77.10
2019-05-18T22:05:27.567Z,77.10
2019-05-18T22:07:55.852Z,77.10
2019-05-18T22:10:26.051Z,77.20
2019-05-18T22:12:54.221Z,77.50
2019-05-18T22:15:22.489Z,77.20
2019-05-18T22:18:05.631Z,77.20
2019-05-18T22:20:39.830Z,77.50
2019-05-18T22:23:06.162Z,77.60
2019-05-18T22:25:34.463Z,77.90
2019-05-18T22:28:02.679Z,78.10
2019-05-18T22:30:30.928Z,78.80
2019-05-18T22:32:59.192Z,78.20
2019-05-18T22:35:27.478Z,78.60
2019-05-18T22:37:55.809Z,78.80
2019-05-18T22:40:24.069Z,79.00
2019-05-18T22:42:52.304Z,79.20
2019-05-18T22:45:20.587Z,79.00
2019-05-18T22:47:48.887Z,79.40
2019-05-18T22:50:17.142Z,79.50
2019-05-18T22:52:45.428Z,79.60
2019-05-18T22:55:14.799Z,79.90
2019-05-18T22:57:43.092Z,79.50
2019-05-18T23:00:11.714Z,80.30
2019-05-18T23:02:40.061Z,80.30
2019-05-18T23:05:08.343Z,80.40
2019-05-18T23:07:36.649Z,80.70
2019-05-18T23:10:06.074Z,80.80
2019-05-18T23:12:34.326Z,81.00
2019-05-18T23:15:02.605Z,81.20
2019-05-18T23:17:30.840Z,81.50
2019-05-18T23:19:59.988Z,81.60
2019-05-18T23:22:29.288Z,81.50
2019-05-18T23:24:57.693Z,81.60
2019-05-18T23:27:26.016Z,81.90
2019-05-18T23:29:54.335Z,82.10
2019-05-18T23:32:22.634Z,82.10
2019-05-18T23:34:50.879Z,82.20
2019-05-18T23:37:19.219Z,82.30
2019-05-18T23:39:47.503Z,82.60
2019-05-18T23:42:15.752Z,82.60
2019-05-18T23:44:44.235Z,82.70
2019-05-18T23:47:12.564Z,82.70
2019-05-18T23:49:41.451Z,82.80
2019-05-18T23:52:10.089Z,83.00
2019-05-18T23:54:38.371Z,82.90
2019-05-18T23:57:06.634Z,83.20
2019-05-18T23:59:34.900Z,83.40
